sensor_id;sensor_type;location;lat;lon;timestamp;P1;durP1;ratioP1;P2;durP2;ratioP2
19891;SDS011;10108;50.142;8.724;2024-03-06T00:00:46;14.48;;;8.02;;
19891;SDS011;10108;50.142;8.724;2024-03-06T00:03:13;14.20;;;7.93;;
19891;SDS011;10108;50.142;8.724;2024-03-06T00:05:39;15.52;;;8.40;;
19891;SDS011;10108;50.142;8.724;2024-03-06T00:08:05;15.32;;;8.25;;
19891;SDS011;10108;50.142;8.724;2024-03-06T00:10:32;13.68;;;7.88;;
19891;SDS011;10108;50.142;8.724;2024-03-06T00:12:58;14.55;;;8.15;;
19891;SDS011;10108;50.142;8.724;2024-03-06T00:15:24;14.52;;;8.05;;
19891;SDS011;10108;50.142;8.724;2024-03-06T00:17:51;15.30;;;8.23;;
19891;SDS011;10108;50.142;8.724;2024-03-06T00:20:17;16.08;;;8.23;;
19891;SDS011;10108;50.142;8.724;2024-03-06T00:22:43;13.27;;;8.10;;
19891;SDS011;10108;50.142;8.724;2024-03-06T00:25:09;13.30;;;7.45;;
19891;SDS011;10108;50.142;8.724;2024-03-06T00:27:36;14.30;;;8.00;;
19891;SDS011;10108;50.142;8.724;2024-03-06T00:30:02;14.93;;;8.00;;
19891;SDS011;10108;50.142;8.724;2024-03-06T00:32:29;13.38;;;7.68;;
19891;SDS011;10108;50.142;8.724;2024-03-06T00:34:55;12.05;;;7.03;;
19891;SDS011;10108;50.142;8.724;2024-03-06T00:37:22;14.27;;;7.70;;
19891;SDS011;10108;50.142;8.724;2024-03-06T00:39:48;17.05;;;7.90;;
19891;SDS011;10108;50.142;8.724;2024-03-06T00:42:14;14.75;;;7.13;;
19891;SDS011;10108;50.142;8.724;2024-03-06T00:44:41;14.93;;;7.45;;
19891;SDS011;10108;50.142;8.724;2024-03-06T00:47:07;16.15;;;8.10;;
19891;SDS011;10108;50.142;8.724;2024-03-06T00:49:33;15.00;;;8.00;;
19891;SDS011;10108;50.142;8.724;2024-03-06T00:52:00;14.43;;;7.47;;
19891;SDS011;10108;50.142;8.724;2024-03-06T00:54:26;15.02;;;7.28;;
19891;SDS011;10108;50.142;8.724;2024-03-06T00:56:52;15.82;;;7.75;;
19891;SDS011;10108;50.142;8.724;2024-03-06T00:59:19;15.60;;;8.30;;
19891;SDS011;10108;50.142;8.724;2024-03-06T01:01:45;14.85;;;7.97;;
19891;SDS011;10108;50.142;8.724;2024-03-06T01:04:11;16.35;;;8.35;;
19891;SDS011;10108;50.142;8.724;2024-03-06T01:06:38;15.05;;;8.00;;
19891;SDS011;10108;50.142;8.724;2024-03-06T01:09:04;15.82;;;7.65;;
19891;SDS011;10108;50.142;8.724;2024-03-06T01:11:30;14.68;;;7.97;;
19891;SDS011;10108;50.142;8.724;2024-03-06T01:13:56;15.65;;;7.72;;
19891;SDS011;10108;50.142;8.724;2024-03-06T01:16:23;14.30;;;7.40;;
19891;SDS011;10108;50.142;8.724;2024-03-06T01:18:49;14.43;;;7.93;;
19891;SDS011;10108;50.142;8.724;2024-03-06T01:21:15;13.60;;;7.65;;
19891;SDS011;10108;50.142;8.724;2024-03-06T01:23:42;14.15;;;8.05;;
19891;SDS011;10108;50.142;8.724;2024-03-06T01:26:09;13.10;;;7.47;;
19891;SDS011;10108;50.142;8.724;2024-03-06T01:28:35;14.60;;;8.15;;
19891;SDS011;10108;50.142;8.724;2024-03-06T01:31:02;16.20;;;8.63;;
19891;SDS011;10108;50.142;8.724;2024-03-06T01:33:29;17.25;;;7.75;;
19891;SDS011;10108;50.142;8.724;2024-03-06T01:35:55;15.68;;;8.00;;
19891;SDS011;10108;50.142;8.724;2024-03-06T01:38:21;15.85;;;8.32;;
19891;SDS011;10108;50.142;8.724;2024-03-06T01:40:48;17.58;;;8.20;;
19891;SDS011;10108;50.142;8.724;2024-03-06T01:43:21;15.50;;;8.25;;
19891;SDS011;10108;50.142;8.724;2024-03-06T01:45:48;15.32;;;8.27;;
19891;SDS011;10108;50.142;8.724;2024-03-06T01:48:15;15.52;;;8.07;;
19891;SDS011;10108;50.142;8.724;2024-03-06T01:50:44;13.93;;;7.60;;
19891;SDS011;10108;50.142;8.724;2024-03-06T01:53:12;16.73;;;8.23;;
19891;SDS011;10108;50.142;8.724;2024-03-06T01:55:40;15.63;;;8.05;;
19891;SDS011;10108;50.142;8.724;2024-03-06T01:58:06;13.98;;;7.95;;
19891;SDS011;10108;50.142;8.724;2024-03-06T02:00:34;12.85;;;7.47;;
19891;SDS011;10108;50.142;8.724;2024-03-06T02:03:01;16.20;;;8.77;;
19891;SDS011;10108;50.142;8.724;2024-03-06T02:05:28;16.75;;;8.55;;
19891;SDS011;10108;50.142;8.724;2024-03-06T02:07:57;16.17;;;8.70;;
19891;SDS011;10108;50.142;8.724;2024-03-06T02:10:25;16.92;;;8.68;;
19891;SDS011;10108;50.142;8.724;2024-03-06T02:12:53;13.50;;;8.15;;
19891;SDS011;10108;50.142;8.724;2024-03-06T02:15:20;15.43;;;7.85;;
19891;SDS011;10108;50.142;8.724;2024-03-06T02:17:46;13.63;;;7.80;;
19891;SDS011;10108;50.142;8.724;2024-03-06T02:20:13;14.93;;;8.27;;
19891;SDS011;10108;50.142;8.724;2024-03-06T02:22:40;16.25;;;8.68;;
19891;SDS011;10108;50.142;8.724;2024-03-06T02:25:06;15.57;;;8.73;;
19891;SDS011;10108;50.142;8.724;2024-03-06T02:27:33;17.45;;;8.90;;
19891;SDS011;10108;50.142;8.724;2024-03-06T02:30:00;14.15;;;8.52;;
19891;SDS011;10108;50.142;8.724;2024-03-06T02:32:26;16.17;;;8.90;;
19891;SDS011;10108;50.142;8.724;2024-03-06T02:34:52;15.10;;;8.90;;
19891;SDS011;10108;50.142;8.724;2024-03-06T02:37:18;16.38;;;8.35;;
19891;SDS011;10108;50.142;8.724;2024-03-06T02:39:45;18.05;;;8.65;;
19891;SDS011;10108;50.142;8.724;2024-03-06T02:42:11;17.55;;;9.23;;
19891;SDS011;10108;50.142;8.724;2024-03-06T02:44:37;19.90;;;9.10;;
19891;SDS011;10108;50.142;8.724;2024-03-06T02:47:04;19.88;;;9.98;;
19891;SDS011;10108;50.142;8.724;2024-03-06T02:49:30;17.38;;;9.80;;
19891;SDS011;10108;50.142;8.724;2024-03-06T02:51:56;16.02;;;8.73;;
19891;SDS011;10108;50.142;8.724;2024-03-06T02:54:23;15.95;;;9.05;;
19891;SDS011;10108;50.142;8.724;2024-03-06T02:56:51;17.48;;;9.40;;
19891;SDS011;10108;50.142;8.724;2024-03-06T02:59:18;19.60;;;10.18;;
19891;SDS011;10108;50.142;8.724;2024-03-06T03:01:44;18.45;;;9.90;;
19891;SDS011;10108;50.142;8.724;2024-03-06T03:04:11;19.27;;;9.73;;
19891;SDS011;10108;50.142;8.724;2024-03-06T03:06:37;16.25;;;9.60;;
19891;SDS011;10108;50.142;8.724;2024-03-06T03:09:03;17.92;;;9.95;;
19891;SDS011;10108;50.142;8.724;2024-03-06T03:11:30;17.40;;;10.43;;
19891;SDS011;10108;50.142;8.724;2024-03-06T03:13:57;18.77;;;10.52;;
19891;SDS011;10108;50.142;8.724;2024-03-06T03:16:24;16.55;;;10.05;;
19891;SDS011;10108;50.142;8.724;2024-03-06T03:18:50;19.30;;;10.63;;
19891;SDS011;10108;50.142;8.724;2024-03-06T03:21:17;17.02;;;10.13;;
19891;SDS011;10108;50.142;8.724;2024-03-06T03:23:43;14.85;;;9.23;;
19891;SDS011;10108;50.142;8.724;2024-03-06T03:26:10;17.40;;;9.70;;
19891;SDS011;10108;50.142;8.724;2024-03-06T03:28:39;15.48;;;9.52;;
19891;SDS011;10108;50.142;8.724;2024-03-06T03:31:09;18.92;;;9.88;;
19891;SDS011;10108;50.142;8.724;2024-03-06T03:33:38;18.42;;;9.15;;
19891;SDS011;10108;50.142;8.724;2024-03-06T03:36:05;14.95;;;8.82;;
19891;SDS011;10108;50.142;8.724;2024-03-06T03:38:33;17.45;;;9.38;;
19891;SDS011;10108;50.142;8.724;2024-03-06T03:41:07;17.00;;;9.18;;
19891;SDS011;10108;50.142;8.724;2024-03-06T03:43:33;15.18;;;9.32;;
19891;SDS011;10108;50.142;8.724;2024-03-06T03:46:00;16.58;;;9.50;;
19891;SDS011;10108;50.142;8.724;2024-03-06T03:48:26;15.93;;;8.90;;
19891;SDS011;10108;50.142;8.724;2024-03-06T03:50:52;16.52;;;8.68;;
19891;SDS011;10108;50.142;8.724;2024-03-06T03:53:19;16.05;;;9.23;;
19891;SDS011;10108;50.142;8.724;2024-03-06T03:55:45;15.43;;;8.52;;
19891;SDS011;10108;50.142;8.724;2024-03-06T03:58:11;15.13;;;8.85;;
19891;SDS011;10108;50.142;8.724;2024-03-06T04:00:38;16.00;;;9.13;;
19891;SDS011;10108;50.142;8.724;2024-03-06T04:03:04;19.95;;;8.70;;
19891;SDS011;10108;50.142;8.724;2024-03-06T04:05:31;14.27;;;8.48;;
19891;SDS011;10108;50.142;8.724;2024-03-06T04:07:57;14.93;;;8.18;;
19891;SDS011;10108;50.142;8.724;2024-03-06T04:10:23;13.95;;;7.97;;
19891;SDS011;10108;50.142;8.724;2024-03-06T04:12:50;14.10;;;7.70;;
19891;SDS011;10108;50.142;8.724;2024-03-06T04:15:16;13.55;;;8.13;;
19891;SDS011;10108;50.142;8.724;2024-03-06T04:17:43;15.27;;;8.00;;
19891;SDS011;10108;50.142;8.724;2024-03-06T04:20:09;17.25;;;7.85;;
19891;SDS011;10108;50.142;8.724;2024-03-06T04:22:38;13.02;;;7.32;;
19891;SDS011;10108;50.142;8.724;2024-03-06T04:25:05;12.68;;;7.35;;
19891;SDS011;10108;50.142;8.724;2024-03-06T04:27:32;14.27;;;7.70;;
19891;SDS011;10108;50.142;8.724;2024-03-06T04:29:58;13.45;;;7.80;;
19891;SDS011;10108;50.142;8.724;2024-03-06T04:32:25;13.77;;;8.13;;
19891;SDS011;10108;50.142;8.724;2024-03-06T04:34:51;14.63;;;8.05;;
19891;SDS011;10108;50.142;8.724;2024-03-06T04:37:19;14.98;;;8.07;;
19891;SDS011;10108;50.142;8.724;2024-03-06T04:39:45;14.98;;;8.70;;
19891;SDS011;10108;50.142;8.724;2024-03-06T04:42:13;15.10;;;8.68;;
19891;SDS011;10108;50.142;8.724;2024-03-06T04:44:39;15.48;;;8.30;;
19891;SDS011;10108;50.142;8.724;2024-03-06T04:47:06;13.48;;;8.45;;
19891;SDS011;10108;50.142;8.724;2024-03-06T04:49:33;17.00;;;8.23;;
19891;SDS011;10108;50.142;8.724;2024-03-06T04:52:00;14.70;;;8.45;;
19891;SDS011;10108;50.142;8.724;2024-03-06T04:54:27;16.60;;;8.70;;
19891;SDS011;10108;50.142;8.724;2024-03-06T04:56:53;12.88;;;8.57;;
19891;SDS011;10108;50.142;8.724;2024-03-06T04:59:20;16.90;;;9.05;;
19891;SDS011;10108;50.142;8.724;2024-03-06T05:01:46;15.88;;;8.52;;
19891;SDS011;10108;50.142;8.724;2024-03-06T05:04:12;15.88;;;8.82;;
19891;SDS011;10108;50.142;8.724;2024-03-06T05:06:39;16.10;;;8.70;;
19891;SDS011;10108;50.142;8.724;2024-03-06T05:09:05;17.98;;;8.90;;
19891;SDS011;10108;50.142;8.724;2024-03-06T05:11:31;14.10;;;8.38;;
19891;SDS011;10108;50.142;8.724;2024-03-06T05:13:59;14.32;;;8.57;;
19891;SDS011;10108;50.142;8.724;2024-03-06T05:16:26;15.88;;;9.25;;
19891;SDS011;10108;50.142;8.724;2024-03-06T05:18:52;19.88;;;9.73;;
19891;SDS011;10108;50.142;8.724;2024-03-06T05:21:19;15.38;;;9.25;;
19891;SDS011;10108;50.142;8.724;2024-03-06T05:23:48;16.73;;;9.68;;
19891;SDS011;10108;50.142;8.724;2024-03-06T05:26:15;15.68;;;9.30;;
19891;SDS011;10108;50.142;8.724;2024-03-06T05:28:42;15.00;;;9.05;;
19891;SDS011;10108;50.142;8.724;2024-03-06T05:31:18;17.35;;;9.98;;
19891;SDS011;10108;50.142;8.724;2024-03-06T05:33:46;18.42;;;10.00;;
19891;SDS011;10108;50.142;8.724;2024-03-06T05:36:14;17.92;;;10.07;;
19891;SDS011;10108;50.142;8.724;2024-03-06T05:38:41;18.35;;;9.98;;
19891;SDS011;10108;50.142;8.724;2024-03-06T05:41:07;17.42;;;10.00;;
19891;SDS011;10108;50.142;8.724;2024-03-06T05:43:37;18.63;;;10.05;;
19891;SDS011;10108;50.142;8.724;2024-03-06T05:46:03;17.42;;;9.65;;
19891;SDS011;10108;50.142;8.724;2024-03-06T05:48:30;14.73;;;9.45;;
19891;SDS011;10108;50.142;8.724;2024-03-06T05:50:56;16.58;;;9.60;;
19891;SDS011;10108;50.142;8.724;2024-03-06T05:53:23;18.25;;;10.35;;
19891;SDS011;10108;50.142;8.724;2024-03-06T05:55:49;17.38;;;9.70;;
19891;SDS011;10108;50.142;8.724;2024-03-06T05:58:15;18.15;;;9.75;;
19891;SDS011;10108;50.142;8.724;2024-03-06T06:00:42;14.18;;;9.50;;
19891;SDS011;10108;50.142;8.724;2024-03-06T06:03:08;18.98;;;9.70;;
19891;SDS011;10108;50.142;8.724;2024-03-06T06:05:38;16.55;;;9.05;;
19891;SDS011;10108;50.142;8.724;2024-03-06T06:08:05;16.75;;;9.77;;
19891;SDS011;10108;50.142;8.724;2024-03-06T06:10:32;16.92;;;9.23;;
19891;SDS011;10108;50.142;8.724;2024-03-06T06:12:58;16.67;;;9.75;;
19891;SDS011;10108;50.142;8.724;2024-03-06T06:15:25;22.10;;;10.60;;
19891;SDS011;10108;50.142;8.724;2024-03-06T06:17:51;15.85;;;9.70;;
19891;SDS011;10108;50.142;8.724;2024-03-06T06:20:18;17.33;;;10.25;;
19891;SDS011;10108;50.142;8.724;2024-03-06T06:22:44;17.38;;;10.15;;
19891;SDS011;10108;50.142;8.724;2024-03-06T06:25:10;17.48;;;10.60;;
19891;SDS011;10108;50.142;8.724;2024-03-06T06:27:38;18.73;;;10.40;;
19891;SDS011;10108;50.142;8.724;2024-03-06T06:30:04;17.17;;;10.48;;
19891;SDS011;10108;50.142;8.724;2024-03-06T06:32:31;20.30;;;10.40;;
19891;SDS011;10108;50.142;8.724;2024-03-06T06:34:58;20.00;;;10.75;;
19891;SDS011;10108;50.142;8.724;2024-03-06T06:37:24;19.75;;;10.27;;
19891;SDS011;10108;50.142;8.724;2024-03-06T06:39:51;21.20;;;11.05;;
19891;SDS011;10108;50.142;8.724;2024-03-06T06:42:17;16.73;;;10.95;;
19891;SDS011;10108;50.142;8.724;2024-03-06T06:44:43;20.17;;;11.32;;
19891;SDS011;10108;50.142;8.724;2024-03-06T06:47:10;18.27;;;11.15;;
19891;SDS011;10108;50.142;8.724;2024-03-06T06:49:36;20.10;;;11.35;;
19891;SDS011;10108;50.142;8.724;2024-03-06T06:52:02;18.92;;;11.75;;
19891;SDS011;10108;50.142;8.724;2024-03-06T06:54:29;20.60;;;11.45;;
19891;SDS011;10108;50.142;8.724;2024-03-06T06:56:55;22.73;;;11.38;;
19891;SDS011;10108;50.142;8.724;2024-03-06T06:59:21;22.95;;;11.82;;
19891;SDS011;10108;50.142;8.724;2024-03-06T07:01:48;22.30;;;12.18;;
19891;SDS011;10108;50.142;8.724;2024-03-06T07:04:15;21.10;;;11.60;;
19891;SDS011;10108;50.142;8.724;2024-03-06T07:06:45;21.02;;;11.80;;
19891;SDS011;10108;50.142;8.724;2024-03-06T07:09:12;20.75;;;11.70;;
19891;SDS011;10108;50.142;8.724;2024-03-06T07:11:41;24.60;;;12.45;;
19891;SDS011;10108;50.142;8.724;2024-03-06T07:14:08;21.83;;;12.48;;
19891;SDS011;10108;50.142;8.724;2024-03-06T07:16:34;23.02;;;12.00;;
19891;SDS011;10108;50.142;8.724;2024-03-06T07:19:10;23.95;;;12.45;;
19891;SDS011;10108;50.142;8.724;2024-03-06T07:21:37;22.70;;;13.60;;
19891;SDS011;10108;50.142;8.724;2024-03-06T07:24:04;25.98;;;13.45;;
19891;SDS011;10108;50.142;8.724;2024-03-06T07:26:33;25.35;;;14.40;;
19891;SDS011;10108;50.142;8.724;2024-03-06T07:29:00;24.23;;;14.20;;
19891;SDS011;10108;50.142;8.724;2024-03-06T07:31:27;25.80;;;14.05;;
19891;SDS011;10108;50.142;8.724;2024-03-06T07:33:54;22.65;;;13.73;;
19891;SDS011;10108;50.142;8.724;2024-03-06T07:36:20;28.08;;;15.13;;
19891;SDS011;10108;50.142;8.724;2024-03-06T07:38:47;29.38;;;15.13;;
19891;SDS011;10108;50.142;8.724;2024-03-06T07:41:14;30.08;;;13.95;;
19891;SDS011;10108;50.142;8.724;2024-03-06T07:43:40;27.17;;;14.82;;
19891;SDS011;10108;50.142;8.724;2024-03-06T07:46:07;29.25;;;15.40;;
19891;SDS011;10108;50.142;8.724;2024-03-06T07:48:41;28.83;;;15.45;;
19891;SDS011;10108;50.142;8.724;2024-03-06T07:51:09;27.23;;;15.57;;
19891;SDS011;10108;50.142;8.724;2024-03-06T07:53:36;26.33;;;15.20;;
19891;SDS011;10108;50.142;8.724;2024-03-06T07:56:03;26.08;;;14.07;;
19891;SDS011;10108;50.142;8.724;2024-03-06T07:58:29;26.02;;;14.43;;
19891;SDS011;10108;50.142;8.724;2024-03-06T08:00:57;25.60;;;14.80;;
19891;SDS011;10108;50.142;8.724;2024-03-06T08:03:25;24.80;;;14.95;;
19891;SDS011;10108;50.142;8.724;2024-03-06T08:05:51;26.35;;;13.55;;
19891;SDS011;10108;50.142;8.724;2024-03-06T08:08:18;26.75;;;14.10;;
19891;SDS011;10108;50.142;8.724;2024-03-06T08:10:45;26.85;;;15.00;;
19891;SDS011;10108;50.142;8.724;2024-03-06T08:13:11;24.30;;;13.68;;
19891;SDS011;10108;50.142;8.724;2024-03-06T08:15:37;24.40;;;13.52;;
19891;SDS011;10108;50.142;8.724;2024-03-06T08:18:05;24.30;;;14.38;;
19891;SDS011;10108;50.142;8.724;2024-03-06T08:20:32;26.60;;;13.85;;
19891;SDS011;10108;50.142;8.724;2024-03-06T08:22:58;24.58;;;13.95;;
19891;SDS011;10108;50.142;8.724;2024-03-06T08:25:25;26.30;;;14.68;;
19891;SDS011;10108;50.142;8.724;2024-03-06T08:27:51;28.13;;;14.95;;
19891;SDS011;10108;50.142;8.724;2024-03-06T08:30:17;25.58;;;15.05;;
19891;SDS011;10108;50.142;8.724;2024-03-06T08:32:44;29.10;;;15.32;;
19891;SDS011;10108;50.142;8.724;2024-03-06T08:35:11;27.67;;;15.40;;
19891;SDS011;10108;50.142;8.724;2024-03-06T08:37:39;30.55;;;15.93;;
19891;SDS011;10108;50.142;8.724;2024-03-06T08:40:09;30.90;;;16.38;;
19891;SDS011;10108;50.142;8.724;2024-03-06T08:42:43;34.78;;;17.30;;
19891;SDS011;10108;50.142;8.724;2024-03-06T08:45:10;31.75;;;17.08;;
19891;SDS011;10108;50.142;8.724;2024-03-06T08:47:37;32.20;;;15.93;;
19891;SDS011;10108;50.142;8.724;2024-03-06T08:50:04;32.28;;;17.13;;
19891;SDS011;10108;50.142;8.724;2024-03-06T08:52:31;30.42;;;16.67;;
19891;SDS011;10108;50.142;8.724;2024-03-06T08:54:57;32.60;;;16.70;;
19891;SDS011;10108;50.142;8.724;2024-03-06T08:57:24;29.52;;;16.35;;
19891;SDS011;10108;50.142;8.724;2024-03-06T08:59:52;30.58;;;16.95;;
19891;SDS011;10108;50.142;8.724;2024-03-06T09:02:18;39.63;;;17.92;;
19891;SDS011;10108;50.142;8.724;2024-03-06T09:04:45;32.92;;;17.35;;
19891;SDS011;10108;50.142;8.724;2024-03-06T09:07:12;32.70;;;17.13;;
19891;SDS011;10108;50.142;8.724;2024-03-06T09:09:39;31.67;;;16.17;;
19891;SDS011;10108;50.142;8.724;2024-03-06T09:12:06;33.65;;;16.92;;
19891;SDS011;10108;50.142;8.724;2024-03-06T09:14:35;32.63;;;17.50;;
19891;SDS011;10108;50.142;8.724;2024-03-06T09:17:03;33.58;;;17.25;;
19891;SDS011;10108;50.142;8.724;2024-03-06T09:19:30;34.92;;;18.13;;
19891;SDS011;10108;50.142;8.724;2024-03-06T09:21:57;35.47;;;17.30;;
19891;SDS011;10108;50.142;8.724;2024-03-06T09:24:23;38.83;;;19.45;;
19891;SDS011;10108;50.142;8.724;2024-03-06T09:26:54;37.13;;;18.23;;
19891;SDS011;10108;50.142;8.724;2024-03-06T09:29:20;34.55;;;18.60;;
19891;SDS011;10108;50.142;8.724;2024-03-06T09:31:47;36.25;;;19.23;;
19891;SDS011;10108;50.142;8.724;2024-03-06T09:34:14;34.65;;;18.70;;
19891;SDS011;10108;50.142;8.724;2024-03-06T09:36:41;37.05;;;18.85;;
19891;SDS011;10108;50.142;8.724;2024-03-06T09:39:11;37.65;;;18.38;;
19891;SDS011;10108;50.142;8.724;2024-03-06T09:41:38;36.05;;;18.63;;
19891;SDS011;10108;50.142;8.724;2024-03-06T09:44:07;35.72;;;18.48;;
19891;SDS011;10108;50.142;8.724;2024-03-06T09:46:34;35.03;;;17.83;;
19891;SDS011;10108;50.142;8.724;2024-03-06T09:49:01;39.92;;;19.45;;
19891;SDS011;10108;50.142;8.724;2024-03-06T09:51:28;36.85;;;18.77;;
19891;SDS011;10108;50.142;8.724;2024-03-06T09:53:54;31.15;;;16.92;;
19891;SDS011;10108;50.142;8.724;2024-03-06T09:56:21;35.03;;;18.23;;
19891;SDS011;10108;50.142;8.724;2024-03-06T09:58:47;36.47;;;18.77;;
19891;SDS011;10108;50.142;8.724;2024-03-06T10:01:14;37.15;;;19.13;;
19891;SDS011;10108;50.142;8.724;2024-03-06T10:03:40;37.60;;;19.98;;
19891;SDS011;10108;50.142;8.724;2024-03-06T10:06:07;37.92;;;19.05;;
19891;SDS011;10108;50.142;8.724;2024-03-06T10:08:34;36.95;;;19.95;;
19891;SDS011;10108;50.142;8.724;2024-03-06T10:11:00;36.53;;;19.52;;
19891;SDS011;10108;50.142;8.724;2024-03-06T10:13:27;35.08;;;19.63;;
19891;SDS011;10108;50.142;8.724;2024-03-06T10:18:26;36.47;;;19.52;;
19891;SDS011;10108;50.142;8.724;2024-03-06T10:20:53;37.63;;;19.20;;
19891;SDS011;10108;50.142;8.724;2024-03-06T10:23:20;38.90;;;20.70;;
19891;SDS011;10108;50.142;8.724;2024-03-06T10:25:50;34.83;;;19.00;;
19891;SDS011;10108;50.142;8.724;2024-03-06T10:28:18;38.90;;;19.23;;
19891;SDS011;10108;50.142;8.724;2024-03-06T10:30:46;36.28;;;19.08;;
19891;SDS011;10108;50.142;8.724;2024-03-06T10:33:13;38.58;;;19.63;;
19891;SDS011;10108;50.142;8.724;2024-03-06T10:35:40;36.80;;;18.40;;
19891;SDS011;10108;50.142;8.724;2024-03-06T10:38:08;39.83;;;20.80;;
19891;SDS011;10108;50.142;8.724;2024-03-06T10:40:35;39.40;;;19.15;;
19891;SDS011;10108;50.142;8.724;2024-03-06T10:43:03;37.33;;;19.42;;
19891;SDS011;10108;50.142;8.724;2024-03-06T10:45:43;37.75;;;19.25;;
19891;SDS011;10108;50.142;8.724;2024-03-06T10:48:17;34.58;;;18.27;;
19891;SDS011;10108;50.142;8.724;2024-03-06T10:50:44;36.45;;;18.23;;
19891;SDS011;10108;50.142;8.724;2024-03-06T10:53:15;39.80;;;19.85;;
19891;SDS011;10108;50.142;8.724;2024-03-06T10:55:43;35.65;;;18.73;;
19891;SDS011;10108;50.142;8.724;2024-03-06T10:58:11;35.10;;;18.67;;
19891;SDS011;10108;50.142;8.724;2024-03-06T11:00:38;32.45;;;17.25;;
19891;SDS011;10108;50.142;8.724;2024-03-06T11:03:08;38.78;;;18.95;;
19891;SDS011;10108;50.142;8.724;2024-03-06T11:05:38;35.40;;;17.48;;
19891;SDS011;10108;50.142;8.724;2024-03-06T11:08:06;35.55;;;18.35;;
19891;SDS011;10108;50.142;8.724;2024-03-06T11:10:34;35.75;;;17.58;;
19891;SDS011;10108;50.142;8.724;2024-03-06T11:13:01;32.60;;;17.02;;
19891;SDS011;10108;50.142;8.724;2024-03-06T11:15:30;34.83;;;18.13;;
19891;SDS011;10108;50.142;8.724;2024-03-06T11:17:57;32.17;;;17.13;;
19891;SDS011;10108;50.142;8.724;2024-03-06T11:20:24;33.83;;;17.42;;
19891;SDS011;10108;50.142;8.724;2024-03-06T11:28:22;34.28;;;16.80;;
19891;SDS011;10108;50.142;8.724;2024-03-06T11:30:59;35.20;;;16.83;;
19891;SDS011;10108;50.142;8.724;2024-03-06T11:33:33;33.67;;;17.27;;
19891;SDS011;10108;50.142;8.724;2024-03-06T11:41:19;30.60;;;16.23;;
19891;SDS011;10108;50.142;8.724;2024-03-06T11:43:46;32.03;;;16.48;;
19891;SDS011;10108;50.142;8.724;2024-03-06T11:46:16;34.20;;;17.33;;
19891;SDS011;10108;50.142;8.724;2024-03-06T11:48:43;33.88;;;17.00;;
19891;SDS011;10108;50.142;8.724;2024-03-06T11:51:16;30.58;;;16.25;;
19891;SDS011;10108;50.142;8.724;2024-03-06T11:53:43;33.72;;;17.30;;
19891;SDS011;10108;50.142;8.724;2024-03-06T11:56:10;31.92;;;16.92;;
19891;SDS011;10108;50.142;8.724;2024-03-06T11:58:37;33.75;;;16.50;;
19891;SDS011;10108;50.142;8.724;2024-03-06T12:01:03;32.45;;;16.80;;
19891;SDS011;10108;50.142;8.724;2024-03-06T12:03:30;33.13;;;17.27;;
19891;SDS011;10108;50.142;8.724;2024-03-06T12:05:57;30.40;;;15.75;;
19891;SDS011;10108;50.142;8.724;2024-03-06T12:08:24;33.00;;;16.77;;
19891;SDS011;10108;50.142;8.724;2024-03-06T12:10:51;34.47;;;17.73;;
19891;SDS011;10108;50.142;8.724;2024-03-06T12:13:17;33.78;;;16.27;;
19891;SDS011;10108;50.142;8.724;2024-03-06T12:15:44;35.58;;;15.85;;
19891;SDS011;10108;50.142;8.724;2024-03-06T12:18:11;28.50;;;14.80;;
19891;SDS011;10108;50.142;8.724;2024-03-06T12:20:43;29.08;;;14.43;;
19891;SDS011;10108;50.142;8.724;2024-03-06T12:23:21;30.00;;;14.18;;
19891;SDS011;10108;50.142;8.724;2024-03-06T12:26:06;26.23;;;13.07;;
19891;SDS011;10108;50.142;8.724;2024-03-06T12:28:36;26.52;;;13.70;;
19891;SDS011;10108;50.142;8.724;2024-03-06T12:31:05;26.88;;;13.43;;
19891;SDS011;10108;50.142;8.724;2024-03-06T12:33:33;27.75;;;14.40;;
19891;SDS011;10108;50.142;8.724;2024-03-06T12:36:03;28.23;;;14.75;;
19891;SDS011;10108;50.142;8.724;2024-03-06T12:38:36;28.42;;;14.45;;
19891;SDS011;10108;50.142;8.724;2024-03-06T12:41:03;31.70;;;14.52;;
19891;SDS011;10108;50.142;8.724;2024-03-06T12:43:30;26.05;;;14.27;;
19891;SDS011;10108;50.142;8.724;2024-03-06T12:45:56;33.17;;;14.95;;
19891;SDS011;10108;50.142;8.724;2024-03-06T12:48:23;27.90;;;14.02;;
19891;SDS011;10108;50.142;8.724;2024-03-06T12:50:51;29.65;;;14.38;;
19891;SDS011;10108;50.142;8.724;2024-03-06T12:53:22;30.30;;;14.90;;
19891;SDS011;10108;50.142;8.724;2024-03-06T12:55:49;28.92;;;15.02;;
19891;SDS011;10108;50.142;8.724;2024-03-06T12:58:15;28.30;;;14.15;;
19891;SDS011;10108;50.142;8.724;2024-03-06T13:00:43;25.85;;;13.60;;
19891;SDS011;10108;50.142;8.724;2024-03-06T13:03:09;28.55;;;14.18;;
19891;SDS011;10108;50.142;8.724;2024-03-06T13:05:36;28.95;;;14.20;;
19891;SDS011;10108;50.142;8.724;2024-03-06T13:08:02;28.45;;;14.27;;
19891;SDS011;10108;50.142;8.724;2024-03-06T13:10:29;28.63;;;14.50;;
19891;SDS011;10108;50.142;8.724;2024-03-06T13:12:55;25.55;;;13.25;;
19891;SDS011;10108;50.142;8.724;2024-03-06T13:15:22;24.38;;;13.15;;
19891;SDS011;10108;50.142;8.724;2024-03-06T13:17:48;24.33;;;12.82;;
19891;SDS011;10108;50.142;8.724;2024-03-06T13:20:14;25.73;;;13.05;;
19891;SDS011;10108;50.142;8.724;2024-03-06T13:22:41;27.23;;;13.95;;
19891;SDS011;10108;50.142;8.724;2024-03-06T13:25:07;25.48;;;13.00;;
19891;SDS011;10108;50.142;8.724;2024-03-06T13:27:34;27.08;;;13.30;;
19891;SDS011;10108;50.142;8.724;2024-03-06T13:30:00;29.08;;;14.73;;
19891;SDS011;10108;50.142;8.724;2024-03-06T13:32:27;27.48;;;13.93;;
19891;SDS011;10108;50.142;8.724;2024-03-06T13:34:53;29.23;;;15.15;;
19891;SDS011;10108;50.142;8.724;2024-03-06T13:37:20;31.33;;;16.05;;
19891;SDS011;10108;50.142;8.724;2024-03-06T13:39:49;33.33;;;16.50;;
19891;SDS011;10108;50.142;8.724;2024-03-06T13:42:16;28.83;;;15.32;;
19891;SDS011;10108;50.142;8.724;2024-03-06T13:44:42;26.38;;;15.05;;
19891;SDS011;10108;50.142;8.724;2024-03-06T13:47:14;25.48;;;13.07;;
19891;SDS011;10108;50.142;8.724;2024-03-06T13:49:42;28.73;;;14.93;;
19891;SDS011;10108;50.142;8.724;2024-03-06T13:52:08;33.47;;;15.60;;
19891;SDS011;10108;50.142;8.724;2024-03-06T13:54:41;27.88;;;14.70;;
19891;SDS011;10108;50.142;8.724;2024-03-06T13:57:08;29.73;;;13.88;;
19891;SDS011;10108;50.142;8.724;2024-03-06T13:59:35;29.05;;;15.02;;
19891;SDS011;10108;50.142;8.724;2024-03-06T14:02:01;30.83;;;15.18;;
19891;SDS011;10108;50.142;8.724;2024-03-06T14:04:31;29.00;;;15.30;;
19891;SDS011;10108;50.142;8.724;2024-03-06T14:06:57;28.10;;;15.07;;
19891;SDS011;10108;50.142;8.724;2024-03-06T14:09:24;27.05;;;15.07;;
19891;SDS011;10108;50.142;8.724;2024-03-06T14:11:54;27.25;;;14.82;;
19891;SDS011;10108;50.142;8.724;2024-03-06T14:14:21;28.05;;;14.73;;
19891;SDS011;10108;50.142;8.724;2024-03-06T14:16:48;27.55;;;14.13;;
19891;SDS011;10108;50.142;8.724;2024-03-06T14:19:14;28.80;;;15.27;;
19891;SDS011;10108;50.142;8.724;2024-03-06T14:21:41;28.00;;;14.57;;
19891;SDS011;10108;50.142;8.724;2024-03-06T14:24:07;29.05;;;14.90;;
19891;SDS011;10108;50.142;8.724;2024-03-06T14:26:34;27.08;;;13.68;;
19891;SDS011;10108;50.142;8.724;2024-03-06T14:29:01;26.80;;;14.35;;
19891;SDS011;10108;50.142;8.724;2024-03-06T14:31:29;28.17;;;14.32;;
19891;SDS011;10108;50.142;8.724;2024-03-06T14:33:55;27.83;;;14.30;;
19891;SDS011;10108;50.142;8.724;2024-03-06T14:36:21;26.67;;;13.55;;
19891;SDS011;10108;50.142;8.724;2024-03-06T14:38:50;25.48;;;13.23;;